createdAt,value
2019-06-07T00:01:49.841Z,20.59
2019-06-07T00:04:22.197Z,20.54
2019-06-07T00:06:54.469Z,20.43
2019-06-07T00:09:26.737Z,20.41
2019-06-07T00:11:59.445Z,20.31
2019-06-07T00:14:31.695Z,20.27
2019-06-07T00:17:05.101Z,20.20
2019-06-07T00:19:37.378Z,20.22
2019-06-07T00:22:18.423Z,20.24
2019-06-07T00:24:43.703Z,20.27
2019-06-07T00:27:18.278Z,20.23
2019-06-07T00:29:49.963Z,20.18
2019-06-07T00:32:22.460Z,20.15
2019-06-07T00:34:54.722Z,20.12
2019-06-07T00:37:27.016Z,20.11
2019-06-07T00:40:13.902Z,20.10
2019-06-07T00:42:33.274Z,20.08
2019-06-07T00:45:11.213Z,20.03
2019-06-07T00:47:44.263Z,20.01
2019-06-07T00:50:20.421Z,20.01
2019-06-07T00:53:14.799Z,20.05
2019-06-07T00:55:27.671Z,19.99
2019-06-07T00:57:59.365Z,19.91
2019-06-07T01:00:31.781Z,19.89
2019-06-07T01:03:04.196Z,19.89
2019-06-07T01:05:36.531Z,19.78
2019-06-07T01:08:08.833Z,19.84
2019-06-07T01:10:53.001Z,19.78
2019-06-07T01:13:16.718Z,19.69
2019-06-07T01:15:49.663Z,19.65
2019-06-07T01:18:43.550Z,19.74
2019-06-07T01:20:55.914Z,19.73
2019-06-07T01:24:04.672Z,19.75
2019-06-07T01:26:02.061Z,19.69
2019-06-07T01:28:34.367Z,19.69
2019-06-07T01:31:06.669Z,19.69
2019-06-07T01:33:50.806Z,19.70
2019-06-07T01:36:17.779Z,19.64
2019-06-07T01:38:48.757Z,19.65
2019-06-07T01:41:24.393Z,19.59
2019-06-07T01:43:55.191Z,19.58
2019-06-07T01:46:28.712Z,19.59
2019-06-07T01:49:01.389Z,19.59
2019-06-07T01:51:33.680Z,19.50
2019-06-07T01:54:49.282Z,19.39
2019-06-07T01:56:40.235Z,19.43
2019-06-07T01:59:12.523Z,19.39
2019-06-07T02:01:45.267Z,19.47
2019-06-07T02:04:21.639Z,19.44
2019-06-07T02:06:51.713Z,19.42
2019-06-07T02:09:27.993Z,19.31
2019-06-07T02:11:58.160Z,19.36
2019-06-07T02:14:33.551Z,19.40
2019-06-07T02:17:07.082Z,19.48
2019-06-07T02:19:39.476Z,19.49
2019-06-07T02:22:11.811Z,19.50
2019-06-07T02:24:44.211Z,19.34
2019-06-07T02:27:16.638Z,19.52
2019-06-07T02:29:49.020Z,19.58
2019-06-07T02:32:22.317Z,19.57
2019-06-07T02:34:55.395Z,19.60
2019-06-07T02:37:33.607Z,19.66
2019-06-07T02:40:01.757Z,19.62
2019-06-07T02:42:38.992Z,19.73
2019-06-07T02:45:10.748Z,19.68
2019-06-07T02:47:46.342Z,19.72
2019-06-07T02:50:19.607Z,19.75
2019-06-07T02:52:52.981Z,19.75
2019-06-07T02:55:29.082Z,19.81
2019-06-07T02:57:59.292Z,19.94
2019-06-07T03:01:00.067Z,19.96
2019-06-07T03:03:18.039Z,20.16
2019-06-07T03:05:51.386Z,20.12
2019-06-07T03:08:23.760Z,19.89
2019-06-07T03:10:57.413Z,19.94
2019-06-07T03:13:34.909Z,20.00
2019-06-07T03:16:08.313Z,20.02
2019-06-07T03:18:57.539Z,20.16
2019-06-07T03:21:32.026Z,20.15
2019-06-07T03:24:05.737Z,20.19
2019-06-07T03:27:30.490Z,20.21
2019-06-07T03:29:15.606Z,20.22
2019-06-07T03:31:48.141Z,20.36
2019-06-07T03:34:20.366Z,20.33
2019-06-07T03:36:52.627Z,20.33
2019-06-07T03:39:25.294Z,20.36
2019-06-07T03:42:06.133Z,20.41
2019-06-07T03:44:32.976Z,20.54
2019-06-07T03:47:05.806Z,20.53
2019-06-07T03:49:42.117Z,20.66
2019-06-07T03:52:12.002Z,20.68
2019-06-07T03:54:44.298Z,20.72
2019-06-07T03:57:17.642Z,20.71
2019-06-07T03:59:49.916Z,20.87
2019-06-07T04:02:22.147Z,20.88
2019-06-07T04:04:54.321Z,20.96
2019-06-07T04:07:28.985Z,21.22
2019-06-07T04:10:01.618Z,21.40
2019-06-07T04:12:38.638Z,21.35
2019-06-07T04:15:07.979Z,21.55
2019-06-07T04:18:00.481Z,21.55
2019-06-07T04:20:15.616Z,21.71
2019-06-07T04:22:47.998Z,21.79
2019-06-07T04:25:20.239Z,21.85
2019-06-07T04:27:54.479Z,22.02
2019-06-07T04:30:32.128Z,22.36
2019-06-07T04:33:03.792Z,23.78
2019-06-07T04:35:39.177Z,24.15
2019-06-07T04:38:14.619Z,24.79
2019-06-07T04:40:47.368Z,24.73
2019-06-07T04:43:19.716Z,26.31
2019-06-07T04:45:52.043Z,27.15
2019-06-07T04:48:30.926Z,27.27
2019-06-07T04:51:05.561Z,28.52
2019-06-07T04:53:40.897Z,29.55
2019-06-07T04:56:11.867Z,30.08
2019-06-07T04:58:44.148Z,29.89
2019-06-07T05:01:27.323Z,30.78
2019-06-07T05:03:50.608Z,30.71
2019-06-07T05:06:25.115Z,30.81
2019-06-07T05:08:58.730Z,31.11
2019-06-07T05:11:31.993Z,30.85
2019-06-07T05:14:06.219Z,32.39
2019-06-07T05:16:44.767Z,32.05
2019-06-07T05:19:18.410Z,32.20
2019-06-07T05:22:03.731Z,31.59
2019-06-07T05:24:34.825Z,32.61
2019-06-07T05:27:07.006Z,31.49
2019-06-07T05:29:41.642Z,31.81
2019-06-07T05:32:14.648Z,31.77
2019-06-07T05:34:47.391Z,34.07
2019-06-07T05:37:19.695Z,35.51
2019-06-07T05:39:53.964Z,33.76
2019-06-07T05:42:28.359Z,34.92
2019-06-07T05:45:00.628Z,34.15
2019-06-07T05:47:38.451Z,34.68
2019-06-07T05:50:38.017Z,33.67
2019-06-07T05:52:44.353Z,33.43
2019-06-07T05:55:13.585Z,32.87
2019-06-07T05:57:50.635Z,33.93
2019-06-07T06:00:19.793Z,33.98
2019-06-07T06:03:04.854Z,34.15
2019-06-07T06:05:34.194Z,32.47
2019-06-07T06:07:59.295Z,33.66
2019-06-07T06:10:31.604Z,34.26
2019-06-07T06:13:04.087Z,32.29
2019-06-07T06:15:45.320Z,32.57
2019-06-07T06:18:11.547Z,35.12
2019-06-07T06:21:04.913Z,33.30
2019-06-07T06:23:17.820Z,34.61
2019-06-07T06:25:57.028Z,37.24
2019-06-07T06:28:27.415Z,33.63
2019-06-07T06:31:00.827Z,35.69
2019-06-07T06:33:34.724Z,35.95
2019-06-07T06:36:06.862Z,32.90
2019-06-07T06:38:39.676Z,33.35
2019-06-07T06:41:16.247Z,31.75
2019-06-07T06:43:49.371Z,31.09
2019-06-07T06:46:37.499Z,30.96
2019-06-07T06:48:55.327Z,29.81
2019-06-07T06:51:26.904Z,30.13
2019-06-07T06:54:00.165Z,29.21
2019-06-07T06:56:32.695Z,29.45
2019-06-07T07:01:42.538Z,29.39
2019-06-07T07:04:14.606Z,28.51
2019-06-07T07:06:48.064Z,29.47
2019-06-07T07:09:21.367Z,29.96
2019-06-07T07:12:10.763Z,30.67
2019-06-07T07:14:45.560Z,32.71
2019-06-07T07:17:17.401Z,31.40
2019-06-07T07:19:55.293Z,31.42
2019-06-07T07:22:27.499Z,30.75
2019-06-07T07:25:03.058Z,30.65
2019-06-07T07:27:35.261Z,29.12
2019-06-07T07:30:36.122Z,30.38
2019-06-07T07:32:46.733Z,31.86
2019-06-07T07:35:19.134Z,30.33
2019-06-07T07:37:57.034Z,29.03
2019-06-07T07:42:59.638Z,28.05
2019-06-07T07:45:32.044Z,27.91
2019-06-07T07:48:15.475Z,27.72
2019-06-07T07:50:40.105Z,28.03
2019-06-07T07:53:12.423Z,27.31
2019-06-07T07:55:45.760Z,27.65
2019-06-07T07:58:21.225Z,27.97
2019-06-07T08:01:07.159Z,28.34
2019-06-07T08:03:27.531Z,29.44
2019-06-07T08:06:00.361Z,29.30
2019-06-07T08:08:35.070Z,31.32
2019-06-07T08:11:07.613Z,33.33
2019-06-07T08:13:40.574Z,34.64
2019-06-07T08:16:19.050Z,35.11
2019-06-07T08:18:58.523Z,35.14
2019-06-07T08:21:29.578Z,33.03
2019-06-07T08:24:05.622Z,31.36
2019-06-07T08:26:39.819Z,31.36
2019-06-07T08:29:12.639Z,30.51
2019-06-07T08:31:50.827Z,30.18
2019-06-07T08:34:22.740Z,28.98
2019-06-07T08:36:59.156Z,28.84
2019-06-07T08:39:32.491Z,28.56
2019-06-07T08:42:21.261Z,28.47
2019-06-07T08:44:41.222Z,28.67
2019-06-07T08:47:20.518Z,28.78
2019-06-07T08:49:50.677Z,27.81
2019-06-07T08:52:23.772Z,27.59
2019-06-07T08:55:03.317Z,27.76
2019-06-07T08:57:33.000Z,27.32
2019-06-07T09:00:42.416Z,27.72
2019-06-07T09:02:41.944Z,27.60
2019-06-07T09:05:14.924Z,27.57
2019-06-07T09:07:47.341Z,27.38
2019-06-07T09:10:22.302Z,27.12
2019-06-07T09:13:00.328Z,26.99
2019-06-07T09:15:30.055Z,27.24
2019-06-07T09:18:37.815Z,27.02
2019-06-07T09:20:45.964Z,26.88
2019-06-07T09:23:18.557Z,26.56
2019-06-07T09:26:01.363Z,26.18
2019-06-07T09:28:26.273Z,26.12
2019-06-07T09:31:07.846Z,25.92
2019-06-07T09:33:34.660Z,25.58
2019-06-07T09:36:12.846Z,25.43
2019-06-07T09:38:45.808Z,25.64
2019-06-07T09:41:19.239Z,25.80
2019-06-07T09:44:04.740Z,26.03
2019-06-07T09:46:26.030Z,26.30
2019-06-07T09:49:28.942Z,26.38
2019-06-07T09:51:33.752Z,26.80
2019-06-07T09:54:10.863Z,27.69
2019-06-07T09:56:41.192Z,27.33
2019-06-07T09:59:14.834Z,27.59
2019-06-07T10:01:47.298Z,27.31
2019-06-07T10:04:31.387Z,26.90
2019-06-07T10:07:04.056Z,26.93
2019-06-07T10:12:12.652Z,26.80
2019-06-07T10:14:49.724Z,26.63
2019-06-07T10:17:27.103Z,26.69
2019-06-07T10:20:02.567Z,26.50
2019-06-07T10:22:41.061Z,26.54
2019-06-07T10:25:17.706Z,27.01
2019-06-07T10:27:56.076Z,26.77
2019-06-07T10:30:33.053Z,25.96
2019-06-07T10:33:06.819Z,26.19
2019-06-07T10:35:40.710Z,26.24
2019-06-07T10:38:20.846Z,26.33
2019-06-07T10:40:54.225Z,26.25
2019-06-07T10:43:26.665Z,26.50
2019-06-07T10:46:01.360Z,27.02
2019-06-07T10:48:34.221Z,27.09
2019-06-07T10:51:06.581Z,27.48
2019-06-07T10:53:39.721Z,27.37
2019-06-07T10:56:13.434Z,26.73
2019-06-07T10:58:45.935Z,26.56
2019-06-07T11:01:18.258Z,26.74
2019-06-07T11:03:50.528Z,26.78
2019-06-07T11:06:22.929Z,26.33
2019-06-07T11:08:55.419Z,26.44
2019-06-07T11:11:28.016Z,26.85
2019-06-07T11:14:00.669Z,26.91
2019-06-07T11:16:33.940Z,27.16
2019-06-07T11:19:08.045Z,26.93
2019-06-07T11:21:40.845Z,26.76
2019-06-07T11:24:24.732Z,26.71
2019-06-07T11:27:00.213Z,26.96
2019-06-07T11:29:33.706Z,26.97
2019-06-07T11:32:06.376Z,26.82
2019-06-07T11:34:43.226Z,27.26
2019-06-07T11:37:16.202Z,27.56
2019-06-07T11:39:48.975Z,27.40
2019-06-07T11:42:23.873Z,27.91
2019-06-07T11:44:57.498Z,28.17
2019-06-07T11:47:30.086Z,28.17
2019-06-07T11:50:02.569Z,28.77
2019-06-07T11:52:38.833Z,28.55
2019-06-07T11:55:13.572Z,28.38
2019-06-07T11:57:48.389Z,29.09
2019-06-07T12:00:24.317Z,29.14
2019-06-07T12:02:56.701Z,29.17
2019-06-07T12:05:29.292Z,28.94
2019-06-07T12:08:02.765Z,28.88
2019-06-07T12:10:42.789Z,28.78
2019-06-07T12:13:19.555Z,28.57
2019-06-07T12:15:57.523Z,28.12
2019-06-07T12:18:30.030Z,28.31
2019-06-07T12:21:02.361Z,28.21
2019-06-07T12:23:37.253Z,28.38
2019-06-07T12:26:10.698Z,28.38
2019-06-07T12:28:43.021Z,28.67
2019-06-07T12:31:15.367Z,28.46
2019-06-07T12:33:49.278Z,28.82
2019-06-07T12:36:22.006Z,29.03
2019-06-07T12:38:54.593Z,28.94
2019-06-07T12:41:32.387Z,28.98
2019-06-07T12:44:10.047Z,29.10
2019-06-07T12:46:42.423Z,28.98
2019-06-07T12:49:15.088Z,29.27
2019-06-07T12:51:47.487Z,29.16
2019-06-07T12:54:20.058Z,29.10
2019-06-07T12:56:52.857Z,29.36
2019-06-07T12:59:30.410Z,29.23
2019-06-07T13:02:03.568Z,29.52
2019-06-07T13:04:41.661Z,29.67
2019-06-07T13:07:18.061Z,29.50
2019-06-07T13:10:02.242Z,29.55
2019-06-07T13:12:37.355Z,29.82
2019-06-07T13:15:10.459Z,29.62
2019-06-07T13:17:42.924Z,29.69
2019-06-07T13:20:16.186Z,29.54
2019-06-07T13:22:49.867Z,29.59
2019-06-07T13:25:43.539Z,29.53
2019-06-07T13:28:00.042Z,29.20
2019-06-07T13:30:36.483Z,29.19
2019-06-07T13:33:11.447Z,28.98
2019-06-07T13:35:45.232Z,29.12
2019-06-07T13:38:28.880Z,29.14
2019-06-07T13:41:02.169Z,29.31
2019-06-07T13:43:35.529Z,29.26
2019-06-07T13:46:07.868Z,29.31
2019-06-07T13:48:44.274Z,29.30
2019-06-07T13:51:18.983Z,29.23
2019-06-07T13:53:52.827Z,29.09
2019-06-07T13:56:26.047Z,29.20
2019-06-07T13:58:59.372Z,29.11
2019-06-07T14:01:31.781Z,28.23
2019-06-07T14:04:05.141Z,27.26
2019-06-07T14:06:37.472Z,27.54
2019-06-07T14:09:11.245Z,27.69
2019-06-07T14:11:50.625Z,26.50
2019-06-07T14:14:20.215Z,25.75
2019-06-07T14:16:54.614Z,25.56
2019-06-07T14:19:27.011Z,25.87
2019-06-07T14:22:02.992Z,26.29
2019-06-07T14:24:35.441Z,26.59
2019-06-07T14:27:07.857Z,26.82
2019-06-07T14:29:40.787Z,27.04
2019-06-07T14:32:13.198Z,27.20
2019-06-07T14:34:45.549Z,27.23
2019-06-07T14:37:19.969Z,27.39
2019-06-07T14:39:52.355Z,27.27
2019-06-07T14:42:25.355Z,27.54
2019-06-07T14:44:57.987Z,27.72
2019-06-07T14:47:30.298Z,27.04
2019-06-07T14:50:08.315Z,25.43
2019-06-07T14:52:41.605Z,23.77
2019-06-07T14:55:13.996Z,23.46
2019-06-07T14:57:46.411Z,22.98
2019-06-07T15:00:20.387Z,22.87
2019-06-07T15:02:52.685Z,22.95
2019-06-07T15:05:28.636Z,22.90
2019-06-07T15:08:01.075Z,23.07
2019-06-07T15:10:34.007Z,23.18
2019-06-07T15:13:07.609Z,23.02
2019-06-07T15:15:40.032Z,23.16
2019-06-07T15:18:12.720Z,23.30
2019-06-07T15:20:46.272Z,23.32
2019-06-07T15:23:18.564Z,23.32
2019-06-07T15:25:51.166Z,23.37
2019-06-07T15:28:23.648Z,23.49
2019-06-07T15:30:56.038Z,23.58
2019-06-07T15:33:29.694Z,23.75
2019-06-07T15:36:04.304Z,23.89
2019-06-07T15:38:37.176Z,24.16
2019-06-07T15:41:09.759Z,24.23
2019-06-07T15:43:42.418Z,24.51
2019-06-07T15:46:14.746Z,24.49
2019-06-07T15:48:47.074Z,24.83
2019-06-07T15:51:19.572Z,24.71
2019-06-07T15:53:52.811Z,25.05
2019-06-07T15:56:25.102Z,24.93
2019-06-07T15:58:57.464Z,25.20
2019-06-07T16:01:31.108Z,25.13
2019-06-07T16:04:03.493Z,25.08
2019-06-07T16:06:36.277Z,25.31
2019-06-07T16:09:09.152Z,25.25
2019-06-07T16:11:43.644Z,25.23
2019-06-07T16:14:17.582Z,25.10
2019-06-07T16:16:49.923Z,25.06
2019-06-07T16:19:22.220Z,25.02
2019-06-07T16:21:54.533Z,24.73
2019-06-07T16:24:29.612Z,24.56
2019-06-07T16:27:04.923Z,24.66
2019-06-07T16:29:38.518Z,24.72
2019-06-07T16:32:12.023Z,24.64
2019-06-07T16:34:45.881Z,24.59
2019-06-07T16:37:18.497Z,24.43
2019-06-07T16:39:54.053Z,24.44
2019-06-07T16:42:26.462Z,24.44
2019-06-07T16:45:00.132Z,24.41
2019-06-07T16:47:37.038Z,24.37
2019-06-07T16:50:14.762Z,24.49
2019-06-07T16:52:49.214Z,24.58
2019-06-07T16:55:22.550Z,24.51
2019-06-07T16:57:54.862Z,24.37
2019-06-07T17:00:27.648Z,24.45
2019-06-07T17:02:59.908Z,24.58
2019-06-07T17:05:32.352Z,24.46
2019-06-07T17:08:05.714Z,24.46
2019-06-07T17:10:38.241Z,24.39
2019-06-07T17:13:10.676Z,24.39
2019-06-07T17:15:44.934Z,24.30
2019-06-07T17:18:19.019Z,24.30
2019-06-07T17:20:51.334Z,24.32
2019-06-07T17:23:23.654Z,24.33
2019-06-07T17:25:57.125Z,24.34
2019-06-07T17:28:29.646Z,24.40
2019-06-07T17:31:02.085Z,24.28
2019-06-07T17:33:35.356Z,24.33
2019-06-07T17:36:07.786Z,24.22
2019-06-07T17:38:40.453Z,24.38
2019-06-07T17:41:13.847Z,24.45
2019-06-07T17:43:56.396Z,24.58
2019-06-07T17:46:20.291Z,24.62
2019-06-07T17:48:53.262Z,24.67
2019-06-07T17:51:26.555Z,24.67
2019-06-07T17:53:59.970Z,24.49
2019-06-07T17:56:32.478Z,24.35
2019-06-07T17:59:06.221Z,24.30
2019-06-07T18:01:41.683Z,24.18
2019-06-07T18:04:14.149Z,24.24
2019-06-07T18:06:47.364Z,24.18
2019-06-07T18:09:20.519Z,24.18
2019-06-07T18:11:55.958Z,24.42
2019-06-07T18:14:28.312Z,24.54
2019-06-07T18:17:01.679Z,24.67
2019-06-07T18:19:34.037Z,24.50
2019-06-07T18:22:06.411Z,24.42
2019-06-07T18:24:39.780Z,24.71
2019-06-07T18:27:12.013Z,24.63
2019-06-07T18:29:44.315Z,24.49
2019-06-07T18:32:16.658Z,24.63
2019-06-07T18:34:48.907Z,24.38
2019-06-07T18:37:21.264Z,24.23
2019-06-07T18:39:53.616Z,24.20
2019-06-07T18:42:25.779Z,24.42
2019-06-07T18:44:59.348Z,24.25
2019-06-07T18:47:31.761Z,24.16
2019-06-07T18:50:05.543Z,24.07
2019-06-07T18:52:39.454Z,24.00
2019-06-07T18:55:13.358Z,24.05
2019-06-07T18:57:48.047Z,23.93
2019-06-07T19:00:23.321Z,23.92
2019-06-07T19:02:56.124Z,23.76
2019-06-07T19:05:28.672Z,23.76
2019-06-07T19:08:00.950Z,23.82
2019-06-07T19:10:33.195Z,23.74
2019-06-07T19:13:05.651Z,23.77
2019-06-07T19:15:38.072Z,24.21
2019-06-07T19:18:10.364Z,24.29
2019-06-07T19:20:42.640Z,24.65
2019-06-07T19:23:14.909Z,24.71
2019-06-07T19:25:48.392Z,24.87
2019-06-07T19:28:20.688Z,24.99
2019-06-07T19:30:53.088Z,24.91
2019-06-07T19:33:25.384Z,24.87
2019-06-07T19:35:57.631Z,24.62
2019-06-07T19:38:29.845Z,24.45
2019-06-07T19:41:18.041Z,24.52
2019-06-07T19:43:38.207Z,24.34
2019-06-07T19:46:10.431Z,23.97
2019-06-07T19:48:42.688Z,23.88
2019-06-07T19:51:14.997Z,23.55
2019-06-07T19:53:47.312Z,23.40
2019-06-07T19:56:19.556Z,23.27
2019-06-07T19:58:53.836Z,23.14
2019-06-07T20:01:26.122Z,23.18
2019-06-07T20:03:58.413Z,23.00
2019-06-07T20:06:30.588Z,22.91
2019-06-07T20:09:04.861Z,22.86
2019-06-07T20:11:37.474Z,23.41
2019-06-07T20:14:09.742Z,23.74
2019-06-07T20:16:41.965Z,23.69
2019-06-07T20:19:14.258Z,23.68
2019-06-07T20:21:46.474Z,23.55
2019-06-07T20:24:26.974Z,23.57
2019-06-07T20:26:56.144Z,23.38
2019-06-07T20:29:30.222Z,23.09
2019-06-07T20:32:02.598Z,23.18
2019-06-07T20:34:34.932Z,23.26
2019-06-07T20:37:07.740Z,23.26
2019-06-07T20:39:41.348Z,23.03
2019-06-07T20:42:13.890Z,23.34
2019-06-07T20:44:46.093Z,23.57
2019-06-07T20:47:18.376Z,23.64
2019-06-07T20:49:52.620Z,23.68
2019-06-07T20:52:24.911Z,23.63
2019-06-07T20:54:58.447Z,23.60
2019-06-07T20:57:30.866Z,23.51
2019-06-07T21:00:12.605Z,23.42
2019-06-07T21:02:38.947Z,23.37
2019-06-07T21:05:14.364Z,23.30
2019-06-07T21:07:46.703Z,23.19
2019-06-07T21:10:19.030Z,23.18
2019-06-07T21:12:51.379Z,23.17
2019-06-07T21:15:23.589Z,23.14
2019-06-07T21:17:55.751Z,23.14
2019-06-07T21:20:28.188Z,23.11
2019-06-07T21:23:00.734Z,22.94
2019-06-07T21:25:33.132Z,22.70
2019-06-07T21:28:05.386Z,22.67
2019-06-07T21:30:37.647Z,22.80
2019-06-07T21:33:09.814Z,22.91
2019-06-07T21:35:42.899Z,23.09
2019-06-07T21:38:15.639Z,22.94
2019-06-07T21:40:47.908Z,23.12
2019-06-07T21:43:20.071Z,23.12
2019-06-07T21:46:04.770Z,23.19
2019-06-07T21:48:26.246Z,23.13
2019-06-07T21:50:58.520Z,23.10
2019-06-07T21:53:30.728Z,23.04
2019-06-07T21:56:04.848Z,23.04
2019-06-07T21:58:37.143Z,23.10
2019-06-07T22:01:12.378Z,23.06
2019-06-07T22:03:47.441Z,23.07
2019-06-07T22:06:19.738Z,23.04
2019-06-07T22:08:52.106Z,23.04
2019-06-07T22:11:24.391Z,23.05
2019-06-07T22:13:56.633Z,23.05
2019-06-07T22:16:29.568Z,23.08
2019-06-07T22:19:01.851Z,23.03
2019-06-07T22:21:34.025Z,22.94
2019-06-07T22:24:06.852Z,22.89
2019-06-07T22:26:39.292Z,22.80
2019-06-07T22:29:12.416Z,22.80
2019-06-07T22:31:45.843Z,22.72
2019-06-07T22:34:19.197Z,22.62
2019-06-07T22:36:51.654Z,22.60
2019-06-07T22:39:23.811Z,22.59
2019-06-07T22:41:55.999Z,22.58
2019-06-07T22:44:28.287Z,22.49
2019-06-07T22:47:01.585Z,22.20
2019-06-07T22:49:33.849Z,22.52
2019-06-07T22:52:09.372Z,22.59
2019-06-07T22:54:41.210Z,22.65
2019-06-07T22:57:16.673Z,22.67
2019-06-07T22:59:50.068Z,22.54
2019-06-07T23:02:22.401Z,22.48
2019-06-07T23:04:54.686Z,22.42
2019-06-07T23:07:26.983Z,22.36
2019-06-07T23:09:59.303Z,22.37
2019-06-07T23:12:31.617Z,22.31
2019-06-07T23:15:04.975Z,22.37
2019-06-07T23:17:37.240Z,22.40
2019-06-07T23:20:11.786Z,22.44
2019-06-07T23:22:44.267Z,22.37
2019-06-07T23:25:20.923Z,22.45
2019-06-07T23:27:50.735Z,22.44
2019-06-07T23:30:23.249Z,22.48
2019-06-07T23:32:55.438Z,22.58
2019-06-07T23:35:27.734Z,22.43
2019-06-07T23:37:59.942Z,22.11
2019-06-07T23:40:32.220Z,22.01
2019-06-07T23:43:04.385Z,22.03
2019-06-07T23:45:37.647Z,22.31
2019-06-07T23:48:09.831Z,22.29
2019-06-07T23:50:43.133Z,22.11
2019-06-07T23:53:15.652Z,21.98
2019-06-07T23:55:48.000Z,21.98
2019-06-07T23:58:20.574Z,21.86
